createdAt,value
2023-04-18T00:02:38.790Z,13.72
2023-04-18T00:05:43.909Z,13.52
2023-04-18T00:08:46.594Z,13.51
2023-04-18T00:11:49.184Z,13.68
2023-04-18T00:14:52.203Z,13.54
2023-04-18T00:17:57.067Z,13.43
2023-04-18T00:20:59.409Z,13.38
2023-04-18T00:24:02.372Z,13.48
2023-04-18T00:27:04.686Z,13.47
2023-04-18T00:30:09.061Z,13.51
2023-04-18T00:33:12.873Z,13.36
2023-04-18T00:36:15.519Z,13.24
2023-04-18T00:39:17.836Z,13.26
2023-04-18T00:42:21.952Z,13.20
2023-04-18T00:45:24.357Z,13.34
2023-04-18T00:48:27.394Z,13.33
2023-04-18T00:51:29.870Z,13.34
2023-04-18T00:54:32.861Z,13.31
2023-04-18T00:57:36.089Z,13.28
2023-04-18T01:00:38.748Z,13.32
2023-04-18T01:03:41.284Z,13.23
2023-04-18T01:06:45.602Z,13.31
2023-04-18T01:10:06.597Z,13.33
2023-04-18T01:13:20.410Z,13.31
2023-04-18T01:16:23.923Z,13.33
2023-04-18T01:19:26.928Z,13.37
2023-04-18T01:22:31.978Z,13.40
2023-04-18T01:25:34.966Z,13.41
2023-04-18T01:28:37.524Z,13.39
2023-04-18T01:31:41.336Z,13.37
2023-04-18T01:34:43.810Z,13.30
2023-04-18T01:37:46.706Z,13.25
2023-04-18T01:40:49.532Z,13.28
2023-04-18T01:43:52.130Z,13.29
2023-04-18T01:46:55.104Z,13.33
2023-04-18T01:49:57.724Z,13.29
2023-04-18T01:53:00.120Z,13.30
2023-04-18T01:56:02.724Z,13.19
2023-04-18T01:59:05.065Z,13.21
2023-04-18T02:02:08.150Z,13.17
2023-04-18T02:05:11.076Z,13.12
2023-04-18T02:08:14.861Z,13.18
2023-04-18T02:11:20.355Z,13.20
2023-04-18T02:14:22.707Z,13.15
2023-04-18T02:17:26.569Z,13.19
2023-04-18T02:20:33.713Z,13.18
2023-04-18T02:23:37.140Z,13.06
2023-04-18T02:26:39.471Z,13.17
2023-04-18T02:29:42.083Z,13.01
2023-04-18T02:32:44.447Z,13.17
2023-04-18T02:35:47.191Z,13.16
2023-04-18T02:38:51.472Z,13.04
2023-04-18T02:41:55.789Z,13.05
2023-04-18T02:44:58.494Z,13.16
2023-04-18T02:48:01.832Z,13.24
2023-04-18T02:51:05.999Z,13.10
2023-04-18T02:54:09.302Z,13.25
2023-04-18T02:57:12.889Z,13.31
2023-04-18T03:00:16.333Z,13.30
2023-04-18T03:03:22.724Z,13.23
2023-04-18T03:06:25.729Z,13.17
2023-04-18T03:09:28.448Z,13.09
2023-04-18T03:12:31.668Z,13.16
2023-04-18T03:15:35.006Z,13.09
2023-04-18T03:18:38.137Z,13.17
2023-04-18T03:21:40.683Z,12.99
2023-04-18T03:24:43.896Z,13.11
2023-04-18T03:27:46.869Z,13.10
2023-04-18T03:30:50.818Z,13.08
2023-04-18T03:33:53.397Z,13.17
2023-04-18T03:36:58.150Z,13.14
2023-04-18T03:40:01.119Z,13.02
2023-04-18T03:43:07.060Z,12.88
2023-04-18T03:46:09.402Z,13.16
2023-04-18T03:49:15.442Z,13.23
2023-04-18T03:52:20.148Z,13.19
2023-04-18T03:55:22.886Z,13.27
2023-04-18T03:58:25.737Z,13.23
2023-04-18T04:01:29.376Z,13.18
2023-04-18T04:04:32.150Z,13.02
2023-04-18T04:07:34.938Z,13.16
2023-04-18T04:10:37.569Z,13.05
2023-04-18T04:13:40.081Z,12.98
2023-04-18T04:16:43.043Z,12.93
2023-04-18T04:19:46.674Z,12.86
2023-04-18T04:22:52.593Z,12.87
2023-04-18T04:25:58.563Z,12.85
2023-04-18T04:29:05.181Z,12.98
2023-04-18T04:32:08.283Z,13.03
2023-04-18T04:35:11.705Z,12.89
2023-04-18T04:38:15.381Z,12.90
2023-04-18T04:41:18.802Z,13.04
2023-04-18T04:44:22.373Z,13.04
2023-04-18T04:47:26.073Z,13.04
2023-04-18T04:50:29.270Z,13.04
2023-04-18T04:53:31.883Z,13.12
2023-04-18T04:56:34.703Z,13.16
2023-04-18T04:59:37.931Z,13.07
2023-04-18T05:02:41.219Z,13.27
2023-04-18T05:05:43.989Z,13.32
2023-04-18T05:08:50.548Z,13.23
2023-04-18T05:11:53.165Z,13.20
2023-04-18T05:14:55.619Z,13.37
2023-04-18T05:17:58.819Z,13.33
2023-04-18T05:21:01.462Z,13.37
2023-04-18T05:24:04.079Z,13.21
2023-04-18T05:27:06.711Z,13.37
2023-04-18T05:30:09.781Z,13.12
2023-04-18T05:33:12.133Z,13.39
2023-04-18T05:36:14.764Z,13.44
2023-04-18T05:39:17.278Z,13.36
2023-04-18T05:42:19.906Z,13.38
2023-04-18T05:45:22.247Z,13.34
2023-04-18T05:48:25.381Z,13.34
2023-04-18T05:51:28.619Z,13.42
2023-04-18T05:54:31.412Z,13.38
2023-04-18T05:57:33.733Z,13.40
2023-04-18T06:00:36.491Z,13.37
2023-04-18T06:03:39.328Z,13.41
2023-04-18T06:06:42.147Z,13.62
2023-04-18T06:09:44.831Z,13.64
2023-04-18T06:12:47.152Z,13.59
2023-04-18T06:15:50.082Z,13.78
2023-04-18T06:18:52.622Z,13.66
2023-04-18T06:21:55.232Z,13.86
2023-04-18T06:24:57.760Z,13.82
2023-04-18T06:28:00.527Z,14.01
2023-04-18T06:31:02.936Z,13.94
2023-04-18T06:34:06.361Z,13.93
2023-04-18T06:37:08.740Z,14.03
2023-04-18T06:40:12.203Z,14.07
2023-04-18T06:43:14.735Z,14.15
2023-04-18T06:46:17.424Z,14.24
2023-04-18T06:49:22.002Z,14.26
2023-04-18T06:52:28.883Z,14.49
2023-04-18T06:55:31.325Z,14.44
2023-04-18T06:58:33.996Z,14.66
2023-04-18T07:01:43.148Z,14.65
2023-04-18T07:04:46.064Z,14.68
2023-04-18T07:07:48.608Z,14.97
2023-04-18T07:10:54.244Z,15.07
2023-04-18T07:13:56.577Z,15.27
2023-04-18T07:17:00.916Z,15.34
2023-04-18T07:20:03.451Z,15.59
2023-04-18T07:23:06.534Z,15.48
2023-04-18T07:26:10.137Z,15.56
2023-04-18T07:29:12.606Z,15.63
2023-04-18T07:32:14.876Z,15.67
2023-04-18T07:35:17.548Z,15.47
2023-04-18T07:38:20.768Z,15.84
2023-04-18T07:41:23.558Z,15.96
2023-04-18T07:44:25.994Z,15.83
2023-04-18T07:47:31.566Z,16.05
2023-04-18T07:50:34.643Z,16.09
2023-04-18T07:53:37.406Z,16.10
2023-04-18T07:56:42.401Z,16.17
2023-04-18T07:59:45.067Z,16.34
2023-04-18T08:02:47.631Z,16.42
2023-04-18T08:05:52.614Z,16.64
2023-04-18T08:08:55.004Z,16.59
2023-04-18T08:11:59.344Z,16.73
2023-04-18T08:15:01.720Z,16.75
2023-04-18T08:18:10.184Z,16.86
2023-04-18T08:21:14.557Z,17.08
2023-04-18T08:24:17.186Z,17.19
2023-04-18T08:27:20.687Z,17.58
2023-04-18T08:30:26.063Z,17.90
2023-04-18T08:33:37.186Z,18.01
2023-04-18T08:36:42.053Z,17.97
2023-04-18T08:39:45.034Z,18.33
2023-04-18T08:42:51.030Z,18.64
2023-04-18T08:45:59.500Z,18.79
2023-04-18T08:49:04.776Z,18.87
2023-04-18T08:52:13.503Z,19.30
2023-04-18T08:55:16.520Z,19.86
2023-04-18T08:58:22.758Z,20.64
2023-04-18T09:01:58.499Z,21.20
2023-04-18T09:05:11.064Z,22.13
2023-04-18T09:08:25.898Z,22.03
2023-04-18T09:11:30.292Z,21.66
2023-04-18T09:14:33.736Z,20.95
2023-04-18T09:17:46.111Z,20.84
2023-04-18T09:20:50.052Z,20.50
2023-04-18T09:24:03.421Z,20.44
2023-04-18T09:27:14.343Z,20.79
2023-04-18T09:30:40.041Z,20.80
2023-04-18T09:33:54.554Z,20.84
2023-04-18T09:37:11.279Z,20.77
2023-04-18T09:40:19.074Z,20.70
2023-04-18T09:43:21.916Z,20.50
2023-04-18T09:46:25.342Z,20.64
2023-04-18T09:49:27.784Z,21.34
2023-04-18T09:52:41.628Z,21.76
2023-04-18T09:55:44.740Z,22.46
2023-04-18T09:58:57.076Z,22.57
2023-04-18T10:01:59.891Z,22.42
2023-04-18T10:05:05.840Z,21.77
2023-04-18T10:08:09.460Z,21.41
2023-04-18T10:11:12.328Z,21.63
2023-04-18T10:14:17.830Z,21.88
2023-04-18T10:17:21.592Z,22.07
2023-04-18T10:20:32.694Z,21.95
2023-04-18T10:23:39.283Z,21.99
2023-04-18T10:26:47.137Z,21.84
2023-04-18T10:29:54.120Z,21.71
2023-04-18T10:32:56.815Z,21.33
2023-04-18T10:36:08.347Z,21.27
2023-04-18T10:39:22.800Z,21.09
2023-04-18T10:42:47.399Z,20.81
2023-04-18T10:46:23.947Z,20.63
2023-04-18T10:49:33.750Z,20.56
2023-04-18T10:52:36.099Z,20.54
2023-04-18T10:55:44.722Z,20.68
2023-04-18T10:58:52.269Z,20.65
2023-04-18T11:02:16.443Z,20.68
2023-04-18T11:05:21.064Z,20.62
2023-04-18T11:08:24.476Z,20.53
2023-04-18T11:11:26.909Z,20.35
2023-04-18T11:14:48.780Z,20.42
2023-04-18T11:18:04.843Z,20.28
2023-04-18T11:21:07.969Z,20.28
2023-04-18T11:24:10.835Z,20.22
2023-04-18T11:27:13.999Z,20.09
2023-04-18T11:30:16.480Z,19.85
2023-04-18T11:33:29.419Z,19.88
2023-04-18T11:36:35.180Z,19.70
2023-04-18T11:39:44.599Z,19.88
2023-04-18T11:42:46.971Z,19.90
2023-04-18T11:45:57.515Z,19.86
2023-04-18T11:48:59.850Z,19.91
2023-04-18T11:52:13.615Z,19.84
2023-04-18T11:55:21.722Z,19.75
2023-04-18T11:58:31.952Z,19.60
2023-04-18T12:01:34.496Z,19.45
2023-04-18T12:04:52.158Z,19.25
2023-04-18T12:07:56.096Z,19.08
2023-04-18T12:11:02.386Z,19.23
2023-04-18T12:14:04.824Z,19.27
2023-04-18T12:17:07.505Z,19.39
2023-04-18T12:20:10.773Z,19.53
2023-04-18T12:23:36.076Z,19.65
2023-04-18T12:26:45.979Z,19.66
2023-04-18T12:29:48.609Z,19.85
2023-04-18T12:32:53.610Z,19.74
2023-04-18T12:35:56.676Z,19.84
2023-04-18T12:38:59.003Z,19.71
2023-04-18T12:42:02.302Z,19.72
2023-04-18T12:45:07.781Z,19.49
2023-04-18T12:48:10.674Z,19.49
2023-04-18T12:51:13.002Z,19.22
2023-04-18T12:54:16.142Z,19.20
2023-04-18T12:57:18.645Z,19.10
2023-04-18T13:00:23.478Z,18.88
2023-04-18T13:03:26.434Z,18.97
2023-04-18T13:06:32.205Z,19.01
2023-04-18T13:09:34.605Z,18.89
2023-04-18T13:12:43.792Z,19.12
2023-04-18T13:15:46.128Z,19.25
2023-04-18T13:18:48.702Z,19.65
2023-04-18T13:21:54.377Z,20.08
2023-04-18T13:25:03.185Z,20.22
2023-04-18T13:28:05.645Z,20.58
2023-04-18T13:31:08.236Z,21.02
2023-04-18T13:34:10.654Z,21.20
2023-04-18T13:37:14.289Z,21.53
2023-04-18T13:40:16.665Z,21.59
2023-04-18T13:43:19.629Z,21.55
2023-04-18T13:46:24.329Z,21.32
2023-04-18T13:49:27.163Z,21.21
2023-04-18T13:52:29.578Z,21.00
2023-04-18T13:55:32.219Z,21.00
2023-04-18T13:58:34.484Z,20.86
2023-04-18T14:01:37.212Z,20.97
2023-04-18T14:04:39.957Z,20.86
2023-04-18T14:07:42.661Z,20.91
2023-04-18T14:10:46.747Z,20.70
2023-04-18T14:13:49.135Z,20.77
2023-04-18T14:16:55.911Z,20.66
2023-04-18T14:19:58.336Z,20.63
2023-04-18T14:23:01.928Z,20.37
2023-04-18T14:26:05.537Z,20.34
2023-04-18T14:29:08.220Z,20.18
2023-04-18T14:32:10.614Z,20.22
2023-04-18T14:35:13.249Z,20.17
2023-04-18T14:38:16.151Z,20.05
2023-04-18T14:41:18.813Z,19.80
2023-04-18T14:44:22.556Z,19.81
2023-04-18T14:47:30.919Z,19.59
2023-04-18T14:50:33.357Z,19.74
2023-04-18T14:53:36.048Z,19.67
2023-04-18T14:56:38.418Z,19.43
2023-04-18T14:59:41.039Z,19.49
2023-04-18T15:02:43.647Z,19.28
2023-04-18T15:05:48.486Z,19.35
2023-04-18T15:08:54.386Z,19.17
2023-04-18T15:11:58.195Z,19.11
2023-04-18T15:15:00.638Z,18.95
2023-04-18T15:18:03.949Z,18.90
2023-04-18T15:21:06.359Z,18.32
2023-04-18T15:24:09.056Z,18.73
2023-04-18T15:27:11.869Z,18.65
2023-04-18T15:30:14.645Z,18.44
2023-04-18T15:33:19.089Z,18.65
2023-04-18T15:36:22.112Z,18.43
2023-04-18T15:39:24.435Z,18.44
2023-04-18T15:42:28.089Z,18.38
2023-04-18T15:45:30.938Z,18.32
2023-04-18T15:48:34.821Z,18.23
2023-04-18T15:51:37.251Z,18.15
2023-04-18T15:54:42.997Z,18.06
2023-04-18T15:57:45.393Z,18.02
2023-04-18T16:00:50.061Z,18.00
2023-04-18T16:03:52.833Z,17.81
2023-04-18T16:06:55.873Z,17.92
2023-04-18T16:09:58.497Z,17.89
2023-04-18T16:13:00.968Z,17.69
2023-04-18T16:16:07.021Z,17.66
2023-04-18T16:19:09.769Z,17.63
2023-04-18T16:22:15.405Z,17.68
2023-04-18T16:25:18.991Z,17.62
2023-04-18T16:28:22.109Z,17.05
2023-04-18T16:31:24.423Z,17.44
2023-04-18T16:34:27.075Z,17.38
2023-04-18T16:37:29.446Z,17.20
2023-04-18T16:40:32.613Z,17.11
2023-04-18T16:43:38.117Z,17.19
2023-04-18T16:46:40.973Z,17.04
2023-04-18T16:49:44.830Z,17.07
2023-04-18T16:52:47.520Z,17.06
2023-04-18T16:55:56.178Z,16.99
2023-04-18T16:59:02.803Z,17.00
2023-04-18T17:02:05.752Z,17.00
2023-04-18T17:05:10.934Z,17.00
2023-04-18T17:08:13.360Z,16.94
2023-04-18T17:11:16.076Z,16.92
2023-04-18T17:14:18.543Z,16.74
2023-04-18T17:17:23.161Z,16.74
2023-04-18T17:20:26.041Z,16.65
2023-04-18T17:23:30.329Z,16.72
2023-04-18T17:26:35.295Z,16.54
2023-04-18T17:29:38.355Z,16.62
2023-04-18T17:32:45.741Z,16.34
2023-04-18T17:35:48.899Z,16.49
2023-04-18T17:38:51.350Z,16.35
2023-04-18T17:41:54.873Z,16.29
2023-04-18T17:44:57.355Z,16.40
2023-04-18T17:48:02.254Z,16.23
2023-04-18T17:51:05.084Z,16.31
2023-04-18T17:54:08.187Z,16.31
2023-04-18T17:57:11.237Z,16.14
2023-04-18T18:00:14.689Z,16.21
2023-04-18T18:03:17.640Z,16.16
2023-04-18T18:06:42.546Z,16.11
2023-04-18T18:09:45.848Z,16.03
2023-04-18T18:12:48.466Z,15.94
2023-04-18T18:15:52.767Z,16.04
2023-04-18T18:19:02.243Z,15.87
2023-04-18T18:22:04.601Z,15.97
2023-04-18T18:25:07.629Z,15.90
2023-04-18T18:28:10.134Z,15.76
2023-04-18T18:31:12.906Z,15.80
2023-04-18T18:34:15.678Z,15.70
2023-04-18T18:37:18.448Z,15.81
2023-04-18T18:40:21.309Z,15.79
2023-04-18T18:43:26.289Z,15.67
2023-04-18T18:46:28.789Z,15.77
2023-04-18T18:49:31.654Z,15.76
2023-04-18T18:52:35.781Z,15.66
2023-04-18T18:55:38.427Z,15.77
2023-04-18T18:58:41.142Z,15.57
2023-04-18T19:01:44.011Z,15.75
2023-04-18T19:04:47.076Z,15.78
2023-04-18T19:07:51.453Z,15.76
2023-04-18T19:10:56.002Z,15.62
2023-04-18T19:13:58.584Z,15.64
2023-04-18T19:17:01.046Z,15.75
2023-04-18T19:20:04.104Z,15.72
2023-04-18T19:23:06.551Z,15.72
2023-04-18T19:26:10.039Z,15.69
2023-04-18T19:29:14.313Z,15.67
2023-04-18T19:32:17.275Z,15.66
2023-04-18T19:35:19.608Z,15.67
2023-04-18T19:38:22.264Z,15.64
2023-04-18T19:41:26.018Z,15.66
2023-04-18T19:44:28.692Z,15.50
2023-04-18T19:47:33.812Z,15.65
2023-04-18T19:50:39.460Z,15.62
2023-04-18T19:53:41.840Z,15.58
2023-04-18T19:56:44.507Z,15.45
2023-04-18T19:59:46.919Z,15.55
2023-04-18T20:02:49.683Z,15.52
2023-04-18T20:05:52.508Z,15.35
2023-04-18T20:08:57.912Z,15.50
2023-04-18T20:12:02.068Z,15.50
2023-04-18T20:15:05.739Z,15.34
2023-04-18T20:18:08.269Z,15.46
2023-04-18T20:21:15.153Z,15.30
2023-04-18T20:24:17.904Z,15.24
2023-04-18T20:27:23.615Z,15.22
2023-04-18T20:30:27.691Z,15.17
2023-04-18T20:33:30.099Z,15.14
2023-04-18T20:36:34.504Z,15.17
2023-04-18T20:39:38.416Z,15.31
2023-04-18T20:42:41.117Z,15.17
2023-04-18T20:45:43.448Z,15.33
2023-04-18T20:48:46.171Z,15.11
2023-04-18T20:51:53.417Z,15.33
2023-04-18T20:55:01.408Z,15.24
2023-04-18T20:58:03.804Z,15.38
2023-04-18T21:01:07.120Z,15.38
2023-04-18T21:04:09.649Z,15.24
2023-04-18T21:07:12.459Z,15.34
2023-04-18T21:10:17.228Z,15.24
2023-04-18T21:13:19.830Z,15.16
2023-04-18T21:16:24.028Z,14.94
2023-04-18T21:19:26.900Z,15.03
2023-04-18T21:22:29.263Z,15.09
2023-04-18T21:25:31.893Z,14.97
2023-04-18T21:28:34.253Z,14.91
2023-04-18T21:31:37.141Z,14.95
2023-04-18T21:34:39.489Z,14.96
2023-04-18T21:37:42.547Z,14.89
2023-04-18T21:40:44.832Z,14.79
2023-04-18T21:43:47.640Z,14.80
2023-04-18T21:46:50.049Z,14.70
2023-04-18T21:49:52.844Z,14.81
2023-04-18T21:52:55.280Z,14.82
2023-04-18T21:55:57.855Z,14.62
2023-04-18T21:59:00.549Z,14.71
2023-04-18T22:02:03.233Z,14.73
2023-04-18T22:05:08.837Z,14.67
2023-04-18T22:08:11.154Z,14.51
2023-04-18T22:11:13.833Z,14.42
2023-04-18T22:14:16.592Z,14.48
2023-04-18T22:17:19.534Z,14.48
2023-04-18T22:20:22.402Z,14.52
2023-04-18T22:23:26.296Z,14.52
2023-04-18T22:26:28.991Z,14.49
2023-04-18T22:29:31.670Z,14.63
2023-04-18T22:32:34.045Z,14.64
2023-04-18T22:35:36.718Z,14.64
2023-04-18T22:38:39.386Z,14.74
2023-04-18T22:41:42.082Z,14.61
2023-04-18T22:44:44.408Z,14.63
2023-04-18T22:47:47.467Z,14.82
2023-04-18T22:50:50.122Z,14.79
2023-04-18T22:53:52.715Z,14.84
2023-04-18T22:56:55.132Z,14.85
2023-04-18T22:59:57.780Z,14.77
2023-04-18T23:03:00.510Z,14.81
2023-04-18T23:06:03.207Z,14.70
2023-04-18T23:09:07.763Z,14.80
2023-04-18T23:12:10.437Z,14.84
2023-04-18T23:15:13.144Z,14.77
2023-04-18T23:18:15.805Z,14.73
2023-04-18T23:21:18.150Z,14.88
2023-04-18T23:24:20.708Z,14.89
2023-04-18T23:27:23.064Z,14.87
2023-04-18T23:30:26.772Z,14.84
2023-04-18T23:33:29.070Z,14.82
2023-04-18T23:36:32.418Z,14.84
2023-04-18T23:39:34.711Z,14.70
2023-04-18T23:42:37.402Z,14.70
2023-04-18T23:45:39.813Z,14.68
2023-04-18T23:48:42.506Z,14.82
2023-04-18T23:51:44.896Z,14.82
2023-04-18T23:54:47.471Z,14.80
2023-04-18T23:57:49.845Z,14.78
